SWA768 KMDW-KIND
Flight info
| Callsign | SWA768 |
|---|---|
| Flight time | 0h 31m |
| Altitude | 23000 |
| Route | EARND ELANR JAKKS2 |
| Aircraft | B737/M-SDE2E3FGHIRWXY/LB1 |
Departure
| Time | 2026-05-04 19:43 |
|---|---|
| Airport | Chicago Midway International Airport (KMDW) |
Arrival
| Time | 2026-05-04 20:15 |
|---|---|
| Airport | Indianapolis International Airport (KIND) |
| Time | Latitude | Longitude | Altitude | Speed | Heading |
|---|---|---|---|---|---|
| 2026-05-04 19:24 | 41.78778 | -87.74493 | 612 ft | 0 kts | 133° |
| 2026-05-04 19:35 | 41.78781 | -87.74497 | 612 ft | 2 kts | 128° |
| 2026-05-04 19:35 | 41.78790 | -87.74513 | 612 ft | 2 kts | 135° |
| 2026-05-04 19:35 | 41.78801 | -87.74527 | 612 ft | 2 kts | 132° |
| 2026-05-04 19:35 | 41.78807 | -87.74535 | 612 ft | 2 kts | 133° |
| 2026-05-04 19:36 | 41.78814 | -87.74554 | 612 ft | 2 kts | 101° |
| 2026-05-04 19:36 | 41.78815 | -87.74573 | 612 ft | 2 kts | 77° |
| 2026-05-04 19:36 | 41.78809 | -87.74592 | 612 ft | 2 kts | 51° |
| 2026-05-04 19:36 | 41.78804 | -87.74599 | 612 ft | 1 kts | 39° |
| 2026-05-04 19:37 | 41.78801 | -87.74602 | 612 ft | 0 kts | 41° |
| 2026-05-04 19:38 | 41.78805 | -87.74596 | 612 ft | 3 kts | 41° |
| 2026-05-04 19:39 | 41.78841 | -87.74553 | 612 ft | 9 kts | 43° |
| 2026-05-04 19:39 | 41.78891 | -87.74502 | 612 ft | 8 kts | 28° |
| 2026-05-04 19:39 | 41.78944 | -87.74463 | 612 ft | 8 kts | 28° |
| 2026-05-04 19:39 | 41.78991 | -87.74413 | 612 ft | 8 kts | 44° |
| 2026-05-04 19:40 | 41.79036 | -87.74357 | 612 ft | 8 kts | 43° |
| 2026-05-04 19:40 | 41.79082 | -87.74300 | 612 ft | 9 kts | 42° |
| 2026-05-04 19:40 | 41.79116 | -87.74261 | 611 ft | 3 kts | 30° |
| 2026-05-04 19:40 | 41.79146 | -87.74257 | 611 ft | 4 kts | 342° |
| 2026-05-04 19:41 | 41.79165 | -87.74277 | 611 ft | 2 kts | 314° |
| 2026-05-04 19:41 | 41.79178 | -87.74294 | 612 ft | 2 kts | 312° |
| 2026-05-04 19:41 | 41.79187 | -87.74308 | 612 ft | 1 kts | 303° |
| 2026-05-04 19:41 | 41.79184 | -87.74325 | 612 ft | 2 kts | 237° |
| 2026-05-04 19:42 | 41.79166 | -87.74348 | 612 ft | 3 kts | 224° |
| 2026-05-04 19:42 | 41.79165 | -87.74350 | 612 ft | 0 kts | 224° |
| 2026-05-04 19:43 | 41.79005 | -87.74558 | 612 ft | 71 kts | 226° |
| 2026-05-04 19:43 | 41.78468 | -87.75237 | 613 ft | 140 kts | 225° |
| 2026-05-04 19:43 | 41.77696 | -87.76244 | 998 ft | 168 kts | 228° |
| 2026-05-04 19:43 | 41.76807 | -87.77406 | 1669 ft | 188 kts | 227° |
| 2026-05-04 19:44 | 41.75803 | -87.78587 | 2397 ft | 194 kts | 224° |
| 2026-05-04 19:44 | 41.74679 | -87.79394 | 3408 ft | 189 kts | 194° |
| 2026-05-04 19:44 | 41.73367 | -87.79352 | 4101 ft | 201 kts | 180° |
| 2026-05-04 19:44 | 41.71945 | -87.78698 | 4510 ft | 234 kts | 148° |
| 2026-05-04 19:45 | 41.70838 | -87.76998 | 5063 ft | 256 kts | 129° |
| 2026-05-04 19:45 | 41.69584 | -87.75256 | 5601 ft | 264 kts | 152° |
| 2026-05-04 19:45 | 41.67893 | -87.74257 | 6151 ft | 273 kts | 166° |
| 2026-05-04 19:45 | 41.66063 | -87.73447 | 6864 ft | 282 kts | 165° |
| 2026-05-04 19:46 | 41.64233 | -87.72523 | 7706 ft | 288 kts | 163° |
| 2026-05-04 19:46 | 41.62371 | -87.71468 | 8596 ft | 292 kts | 161° |
| 2026-05-04 19:46 | 41.60519 | -87.70361 | 9443 ft | 298 kts | 161° |
| 2026-05-04 19:46 | 41.58640 | -87.69205 | 10314 ft | 304 kts | 159° |
| 2026-05-04 19:47 | 41.56743 | -87.67747 | 10915 ft | 324 kts | 153° |
| 2026-05-04 19:47 | 41.54832 | -87.66040 | 11485 ft | 342 kts | 151° |
| 2026-05-04 19:47 | 41.52813 | -87.64243 | 12049 ft | 357 kts | 153° |
| 2026-05-04 19:47 | 41.50616 | -87.62569 | 12626 ft | 370 kts | 158° |
| 2026-05-04 19:48 | 41.48334 | -87.61016 | 13453 ft | 376 kts | 159° |
| 2026-05-04 19:48 | 41.45992 | -87.59478 | 14366 ft | 381 kts | 160° |
| 2026-05-04 19:48 | 41.43559 | -87.58096 | 15293 ft | 381 kts | 166° |
| 2026-05-04 19:48 | 41.41028 | -87.57119 | 16174 ft | 382 kts | 172° |
| 2026-05-04 19:49 | 41.38394 | -87.56431 | 17020 ft | 386 kts | 176° |
| 2026-05-04 19:49 | 41.35762 | -87.55913 | 17896 ft | 388 kts | 178° |
| 2026-05-04 19:49 | 41.33081 | -87.55465 | 18747 ft | 393 kts | 178° |
| 2026-05-04 19:49 | 41.30354 | -87.55031 | 19565 ft | 398 kts | 178° |
| 2026-05-04 19:50 | 41.27588 | -87.54584 | 20352 ft | 403 kts | 178° |
| 2026-05-04 19:50 | 41.24782 | -87.54123 | 21102 ft | 408 kts | 177° |
| 2026-05-04 19:50 | 41.21984 | -87.53653 | 21869 ft | 412 kts | 177° |
| 2026-05-04 19:50 | 41.19144 | -87.53153 | 22516 ft | 416 kts | 176° |
| 2026-05-04 19:51 | 41.16281 | -87.52513 | 22662 ft | 415 kts | 173° |
| 2026-05-04 19:51 | 41.13485 | -87.51769 | 22674 ft | 412 kts | 172° |
| 2026-05-04 19:51 | 41.10686 | -87.50975 | 22676 ft | 411 kts | 172° |
| 2026-05-04 19:51 | 41.07881 | -87.50171 | 22672 ft | 411 kts | 172° |
| 2026-05-04 19:52 | 41.05106 | -87.49384 | 22677 ft | 411 kts | 172° |
| 2026-05-04 19:52 | 41.02294 | -87.48598 | 22677 ft | 410 kts | 172° |
| 2026-05-04 19:52 | 40.99518 | -87.47832 | 22679 ft | 410 kts | 172° |
| 2026-05-04 19:52 | 40.96724 | -87.47073 | 22681 ft | 410 kts | 172° |
| 2026-05-04 19:53 | 40.93940 | -87.46321 | 22683 ft | 410 kts | 172° |
| 2026-05-04 19:53 | 40.91154 | -87.45573 | 22682 ft | 409 kts | 173° |
| 2026-05-04 19:53 | 40.88354 | -87.44824 | 22684 ft | 410 kts | 173° |
| 2026-05-04 19:53 | 40.85553 | -87.44077 | 22682 ft | 410 kts | 173° |
| 2026-05-04 19:54 | 40.82781 | -87.43339 | 22683 ft | 410 kts | 173° |
| 2026-05-04 19:54 | 40.79962 | -87.42590 | 22541 ft | 412 kts | 172° |
| 2026-05-04 19:54 | 40.77169 | -87.41848 | 22053 ft | 411 kts | 173° |
| 2026-05-04 19:54 | 40.74364 | -87.41100 | 21519 ft | 406 kts | 173° |
| 2026-05-04 19:55 | 40.71642 | -87.40375 | 21001 ft | 401 kts | 173° |
| 2026-05-04 19:55 | 40.68924 | -87.39651 | 20479 ft | 398 kts | 173° |
| 2026-05-04 19:55 | 40.66220 | -87.38934 | 19957 ft | 394 kts | 173° |
| 2026-05-04 19:55 | 40.63573 | -87.38233 | 19446 ft | 391 kts | 173° |
| 2026-05-04 19:56 | 40.60896 | -87.37524 | 18928 ft | 388 kts | 174° |
| 2026-05-04 19:56 | 40.58262 | -87.36829 | 18418 ft | 385 kts | 174° |
| 2026-05-04 19:56 | 40.55659 | -87.36143 | 17801 ft | 390 kts | 174° |
| 2026-05-04 19:56 | 40.52991 | -87.35445 | 17171 ft | 395 kts | 174° |
| 2026-05-04 19:57 | 40.50286 | -87.34734 | 16533 ft | 391 kts | 175° |
| 2026-05-04 19:57 | 40.47654 | -87.33942 | 15912 ft | 389 kts | 169° |
| 2026-05-04 19:57 | 40.45148 | -87.32592 | 15291 ft | 395 kts | 155° |
| 2026-05-04 19:57 | 40.43012 | -87.30346 | 14669 ft | 402 kts | 138° |
| 2026-05-04 19:58 | 40.41170 | -87.27548 | 14052 ft | 402 kts | 134° |
| 2026-05-04 19:58 | 40.39457 | -87.24721 | 13667 ft | 393 kts | 133° |
| 2026-05-04 19:58 | 40.37811 | -87.21951 | 13412 ft | 381 kts | 133° |
| 2026-05-04 19:58 | 40.36203 | -87.19263 | 13059 ft | 372 kts | 133° |
| 2026-05-04 19:59 | 40.34597 | -87.16617 | 12688 ft | 366 kts | 134° |
| 2026-05-04 19:59 | 40.33026 | -87.14062 | 12345 ft | 362 kts | 134° |
| 2026-05-04 19:59 | 40.31436 | -87.11500 | 12094 ft | 360 kts | 134° |
| 2026-05-04 19:59 | 40.29855 | -87.08968 | 11851 ft | 360 kts | 135° |
| 2026-05-04 20:00 | 40.28298 | -87.06477 | 11609 ft | 357 kts | 135° |
| 2026-05-04 20:00 | 40.26721 | -87.03957 | 11359 ft | 357 kts | 135° |
| 2026-05-04 20:00 | 40.25167 | -87.01472 | 11115 ft | 353 kts | 135° |
| 2026-05-04 20:00 | 40.23619 | -86.99000 | 10951 ft | 350 kts | 135° |
| 2026-05-04 20:01 | 40.22056 | -86.96507 | 10936 ft | 352 kts | 135° |
| 2026-05-04 20:01 | 40.20504 | -86.94035 | 10951 ft | 353 kts | 135° |
| 2026-05-04 20:01 | 40.18952 | -86.91561 | 10922 ft | 352 kts | 135° |
| 2026-05-04 20:01 | 40.17411 | -86.89106 | 10946 ft | 352 kts | 135° |
| 2026-05-04 20:02 | 40.15831 | -86.86620 | 10958 ft | 352 kts | 136° |
| 2026-05-04 20:02 | 40.14216 | -86.84289 | 10952 ft | 350 kts | 139° |
| 2026-05-04 20:02 | 40.12517 | -86.81981 | 10954 ft | 349 kts | 140° |
| 2026-05-04 20:02 | 40.10832 | -86.79730 | 10927 ft | 350 kts | 140° |
| 2026-05-04 20:03 | 40.09141 | -86.77462 | 10932 ft | 349 kts | 140° |
| 2026-05-04 20:03 | 40.07444 | -86.75163 | 10956 ft | 350 kts | 140° |
| 2026-05-04 20:03 | 40.05764 | -86.72873 | 10931 ft | 352 kts | 139° |
| 2026-05-04 20:03 | 40.04085 | -86.70576 | 10710 ft | 349 kts | 140° |
| 2026-05-04 20:04 | 40.02418 | -86.68284 | 10464 ft | 339 kts | 139° |
| 2026-05-04 20:04 | 40.00843 | -86.66115 | 10277 ft | 328 kts | 140° |
| 2026-05-04 20:04 | 39.99297 | -86.63985 | 10176 ft | 313 kts | 140° |
| 2026-05-04 20:04 | 39.97823 | -86.61959 | 10036 ft | 303 kts | 141° |
| 2026-05-04 20:05 | 39.96413 | -86.60019 | 9802 ft | 296 kts | 141° |
| 2026-05-04 20:05 | 39.94986 | -86.58044 | 9300 ft | 301 kts | 140° |
| 2026-05-04 20:05 | 39.93557 | -86.56059 | 8878 ft | 302 kts | 140° |
| 2026-05-04 20:05 | 39.92122 | -86.54057 | 8504 ft | 301 kts | 140° |
| 2026-05-04 20:06 | 39.90709 | -86.52084 | 8162 ft | 299 kts | 140° |
| 2026-05-04 20:06 | 39.89287 | -86.50097 | 7810 ft | 298 kts | 140° |
| 2026-05-04 20:06 | 39.87875 | -86.48129 | 7425 ft | 297 kts | 140° |
| 2026-05-04 20:06 | 39.86485 | -86.46195 | 7122 ft | 294 kts | 140° |
| 2026-05-04 20:07 | 39.85093 | -86.44271 | 6929 ft | 285 kts | 140° |
| 2026-05-04 20:07 | 39.83731 | -86.42452 | 6570 ft | 284 kts | 141° |
| 2026-05-04 20:07 | 39.82324 | -86.40613 | 6223 ft | 282 kts | 141° |
| 2026-05-04 20:07 | 39.81079 | -86.38696 | 6047 ft | 279 kts | 129° |
| 2026-05-04 20:08 | 39.80397 | -86.36356 | 5982 ft | 280 kts | 98° |
| 2026-05-04 20:08 | 39.80732 | -86.33945 | 5970 ft | 271 kts | 64° |
| 2026-05-04 20:08 | 39.81860 | -86.32033 | 5975 ft | 266 kts | 41° |
| 2026-05-04 20:08 | 39.83215 | -86.30353 | 5952 ft | 266 kts | 41° |
| 2026-05-04 20:09 | 39.84508 | -86.28695 | 5780 ft | 261 kts | 43° |
| 2026-05-04 20:09 | 39.85793 | -86.27012 | 5578 ft | 264 kts | 43° |
| 2026-05-04 20:09 | 39.87085 | -86.25297 | 5398 ft | 266 kts | 47° |
| 2026-05-04 20:09 | 39.87941 | -86.23210 | 5143 ft | 263 kts | 82° |
| 2026-05-04 20:10 | 39.87870 | -86.20949 | 4902 ft | 243 kts | 116° |
| 2026-05-04 20:10 | 39.87007 | -86.19212 | 4663 ft | 216 kts | 150° |
| 2026-05-04 20:10 | 39.85747 | -86.18497 | 4409 ft | 191 kts | 184° |
| 2026-05-04 20:10 | 39.84497 | -86.18813 | 3981 ft | 185 kts | 206° |
| 2026-05-04 20:11 | 39.83299 | -86.19474 | 3543 ft | 187 kts | 207° |
| 2026-05-04 20:11 | 39.82134 | -86.20162 | 3129 ft | 185 kts | 208° |
| 2026-05-04 20:11 | 39.81022 | -86.20898 | 2831 ft | 172 kts | 211° |
| 2026-05-04 20:11 | 39.80034 | -86.21630 | 2590 ft | 152 kts | 214° |
| 2026-05-04 20:12 | 39.79208 | -86.22317 | 2405 ft | 135 kts | 215° |
| 2026-05-04 20:12 | 39.78490 | -86.22995 | 2237 ft | 119 kts | 219° |
| 2026-05-04 20:12 | 39.77888 | -86.23641 | 2092 ft | 109 kts | 221° |
| 2026-05-04 20:12 | 39.77306 | -86.24274 | 2039 ft | 105 kts | 217° |
| 2026-05-04 20:13 | 39.76604 | -86.24761 | 1895 ft | 117 kts | 210° |
| 2026-05-04 20:13 | 39.75965 | -86.25349 | 1691 ft | 115 kts | 221° |
| 2026-05-04 20:13 | 39.75351 | -86.26050 | 1492 ft | 115 kts | 222° |
| 2026-05-04 20:13 | 39.74795 | -86.26786 | 1284 ft | 111 kts | 226° |
| 2026-05-04 20:14 | 39.74234 | -86.27520 | 1166 ft | 119 kts | 225° |
| 2026-05-04 20:14 | 39.73637 | -86.28255 | 1006 ft | 118 kts | 225° |
| 2026-05-04 20:14 | 39.73060 | -86.29007 | 885 ft | 115 kts | 222° |
| 2026-05-04 20:14 | 39.72487 | -86.29728 | 775 ft | 106 kts | 225° |
| 2026-05-04 20:15 | 39.72113 | -86.30203 | 766 ft | 47 kts | 224° |
| 2026-05-04 20:15 | 39.71963 | -86.30396 | 762 ft | 20 kts | 225° |
| 2026-05-04 20:15 | 39.71862 | -86.30527 | 760 ft | 20 kts | 225° |
| 2026-05-04 20:15 | 39.71778 | -86.30634 | 757 ft | 16 kts | 224° |
| 2026-05-04 20:16 | 39.71699 | -86.30733 | 757 ft | 15 kts | 224° |
| 2026-05-04 20:16 | 39.71625 | -86.30824 | 757 ft | 14 kts | 224° |
| 2026-05-04 20:16 | 39.71555 | -86.30911 | 755 ft | 10 kts | 223° |
| 2026-05-04 20:16 | 39.71520 | -86.30953 | 754 ft | 6 kts | 218° |
| 2026-05-04 20:17 | 39.71478 | -86.30988 | 753 ft | 7 kts | 210° |
| 2026-05-04 20:17 | 39.71429 | -86.31007 | 753 ft | 7 kts | 190° |
| 2026-05-04 20:17 | 39.71384 | -86.31010 | 753 ft | 6 kts | 176° |
| 2026-05-04 20:17 | 39.71343 | -86.31006 | 753 ft | 5 kts | 173° |
| 2026-05-04 20:18 | 39.71310 | -86.30985 | 753 ft | 5 kts | 133° |
| 2026-05-04 20:18 | 39.71305 | -86.30941 | 753 ft | 4 kts | 63° |
| 2026-05-04 20:18 | 39.71326 | -86.30911 | 753 ft | 4 kts | 45° |
| 2026-05-04 20:18 | 39.71360 | -86.30866 | 754 ft | 8 kts | 45° |
| 2026-05-04 20:19 | 39.71407 | -86.30806 | 755 ft | 8 kts | 45° |
| 2026-05-04 20:19 | 39.71448 | -86.30753 | 756 ft | 8 kts | 44° |
| 2026-05-04 20:19 | 39.71495 | -86.30695 | 757 ft | 9 kts | 46° |
| 2026-05-04 20:19 | 39.71540 | -86.30636 | 757 ft | 8 kts | 45° |
| 2026-05-04 20:20 | 39.71578 | -86.30589 | 758 ft | 6 kts | 43° |
| 2026-05-04 20:20 | 39.71611 | -86.30546 | 759 ft | 6 kts | 45° |
| 2026-05-04 20:20 | 39.71643 | -86.30505 | 759 ft | 7 kts | 45° |
| 2026-05-04 20:20 | 39.71684 | -86.30454 | 760 ft | 7 kts | 45° |
| 2026-05-04 20:21 | 39.71719 | -86.30409 | 761 ft | 5 kts | 45° |
| 2026-05-04 20:21 | 39.71743 | -86.30378 | 762 ft | 4 kts | 45° |
| 2026-05-04 20:21 | 39.71838 | -86.30256 | 765 ft | 9 kts | 46° |
| 2026-05-04 20:22 | 39.71881 | -86.30195 | 766 ft | 7 kts | 58° |
| 2026-05-04 20:22 | 39.71881 | -86.30137 | 767 ft | 6 kts | 123° |
| 2026-05-04 20:22 | 39.71847 | -86.30086 | 768 ft | 6 kts | 134° |
| 2026-05-04 20:22 | 39.71815 | -86.30045 | 768 ft | 6 kts | 136° |
| 2026-05-04 20:23 | 39.71785 | -86.30009 | 769 ft | 5 kts | 137° |
| 2026-05-04 20:23 | 39.71761 | -86.29981 | 770 ft | 3 kts | 138° |
| 2026-05-04 20:23 | 39.71740 | -86.29957 | 770 ft | 4 kts | 139° |
| 2026-05-04 20:23 | 39.71721 | -86.29931 | 771 ft | 3 kts | 129° |
| 2026-05-04 20:24 | 39.71706 | -86.29906 | 771 ft | 3 kts | 131° |
| 2026-05-04 20:24 | 39.71698 | -86.29891 | 772 ft | 1 kts | 123° |
| 2026-05-04 20:24 | 39.71692 | -86.29878 | 772 ft | 2 kts | 123° |
| 2026-05-04 20:24 | 39.71685 | -86.29864 | 772 ft | 1 kts | 124° |